Terminal Aerodrome Forecast
Issued by NWS

Home | Current Version | Previous Version | Text Only | Print | Product List | Glossary On
Versions: 1 2 3 4 5 6 7 8 9 10 11 12 13 14 15 16 17 18 19 20 21 22 23 24 25 26 27 28
000
FTUS46 KSGX 301130
TAFSAN
TAF
KSAN 301130Z 3012/3118 VRB04KT 5SM BR OVC010
     FM301700 27007KT P6SM SCT010
     FM302000 27010KT P6SM FEW010
     FM310200 VRB05KT P6SM SCT010
     FM310500 VRB04KT 4SM BR OVC008
     FM311500 25003KT 6SM BR SCT015=

USA.gov is the U.S. government's official web portal to all federal, state and local government web resources and services.